Time;durP1;ratioP1;P1;durP2;ratioP2;P2;SDS_P1;SDS_P2;PMS_P1;PMS_P2;Temp;Humidity;BMP_temperature;BMP_pressure;BME280_temperature;BME280_humidity;BME280_pressure;Samples;Min_cycle;Max_cycle;Signal;HPM_P1;HPM_P2
2023/03/25 00:00:06;;;;;;;9.05;7.53;;;;;;;8.71;85.61;62896.75;5025733;28;20210;-75
2023/03/25 00:02:34;;;;;;;16.90;8.07;;;;;;;8.70;85.82;62892.66;5025977;28;20223;-76
2023/03/25 00:05:02;;;;;;;9.02;7.45;;;;;;;8.68;85.98;62893.66;5027683;28;20214;-74
2023/03/25 00:07:30;;;;;;;8.82;6.78;;;;;;;8.68;86.40;62898.22;5028002;28;20469;-74
2023/03/25 00:09:57;;;;;;;10.65;6.60;;;;;;;8.65;86.81;62887.50;5028406;28;20211;-75
2023/03/25 00:12:25;;;;;;;8.88;7.20;;;;;;;8.65;86.73;62890.56;5024986;28;20282;-75
2023/03/25 00:14:54;;;;;;;12.18;7.10;;;;;;;8.66;86.98;62891.56;5027174;28;20213;-75
2023/03/25 00:17:21;;;;;;;7.80;6.15;;;;;;;8.69;86.97;62894.69;5024731;28;20231;-77
2023/03/25 00:19:50;;;;;;;8.98;6.25;;;;;;;8.63;87.44;62887.97;5024963;28;20210;-73
2023/03/25 00:22:17;;;;;;;13.35;6.10;;;;;;;8.66;87.78;62889.03;5029284;28;20222;-74
2023/03/25 00:24:46;;;;;;;7.90;6.13;;;;;;;8.66;87.54;62891.06;5026519;28;20199;-76
2023/03/25 00:27:16;;;;;;;5.63;5.13;;;;;;;8.65;87.84;62892.56;5025033;28;20238;-76
2023/03/25 00:29:43;;;;;;;7.07;5.50;;;;;;;8.62;88.21;62886.94;5018375;28;20242;-75
2023/03/25 00:32:10;;;;;;;6.63;5.63;;;;;;;8.60;88.38;62885.38;5006647;28;20219;-76
2023/03/25 00:34:40;;;;;;;6.43;5.82;;;;;;;8.58;88.73;62885.34;5006852;28;20199;-77
2023/03/25 00:37:09;;;;;;;11.27;5.68;;;;;;;8.59;88.74;62886.91;5023586;28;20391;-76
2023/03/25 00:39:36;;;;;;;8.43;5.82;;;;;;;8.58;88.58;62885.34;5027783;28;20199;-76
2023/03/25 00:42:05;;;;;;;6.63;5.47;;;;;;;8.62;88.50;62890.00;5028675;28;20257;-74
2023/03/25 00:44:32;;;;;;;9.25;5.28;;;;;;;8.51;88.94;62873.53;5022741;28;20241;-74
2023/03/25 00:46:59;;;;;;;7.72;5.65;;;;;;;8.51;89.80;62873.53;5025594;28;20583;-77
2023/03/25 00:49:27;;;;;;;9.70;6.22;;;;;;;8.50;89.83;62874.53;5026761;28;20484;-76
2023/03/25 00:51:55;;;;;;;10.98;6.70;;;;;;;8.50;90.03;62877.59;5026080;28;20218;-76
2023/03/25 00:54:22;;;;;;;7.22;6.35;;;;;;;8.45;90.77;62869.91;5022324;28;20203;-74
2023/03/25 00:56:50;;;;;;;7.45;6.68;;;;;;;8.41;91.18;62865.25;5025806;28;20532;-74
2023/03/25 00:59:18;;;;;;;8.13;6.60;;;;;;;8.36;92.00;62857.53;5026107;28;20202;-74
2023/03/25 01:01:47;;;;;;;14.55;6.82;;;;;;;8.44;91.73;62868.84;5034607;28;20228;-74
2023/03/25 01:04:15;;;;;;;7.60;6.50;;;;;;;8.45;91.79;62869.91;5023468;28;20206;-75
2023/03/25 01:06:43;;;;;;;7.28;6.57;;;;;;;8.51;91.96;62873.53;5028660;28;20270;-74
2023/03/25 01:09:14;;;;;;;7.72;6.15;;;;;;;8.53;92.27;62875.09;5025370;28;20413;-75
2023/03/25 01:11:44;;;;;;;5.20;4.80;;;;;;;8.51;92.24;62880.66;5021442;28;20226;-75
2023/03/25 01:14:14;;;;;;;8.00;5.88;;;;;;;8.42;93.16;62866.28;5025827;28;20201;-76
2023/03/25 01:16:43;;;;;;;11.38;6.22;;;;;;;8.44;92.67;62865.81;5029086;28;20409;-75
2023/03/25 01:19:11;;;;;;;9.40;6.40;;;;;;;8.38;92.90;62867.75;5025976;28;20518;-75
2023/03/25 01:21:38;;;;;;;7.35;6.65;;;;;;;8.32;93.57;62850.88;5022988;28;20374;-76
2023/03/25 01:24:06;;;;;;;9.25;7.53;;;;;;;8.37;93.57;62858.59;5044665;28;20202;-77
2023/03/25 01:26:33;;;;;;;9.13;6.60;;;;;;;8.33;93.86;62859.50;5028720;28;20309;-75
2023/03/25 01:29:00;;;;;;;8.20;6.70;;;;;;;8.35;93.84;62856.50;5024931;28;20310;-76
2023/03/25 01:31:28;;;;;;;8.30;6.95;;;;;;;8.35;94.03;62864.66;5020898;28;20578;-75
2023/03/25 01:33:57;;;;;;;9.80;7.78;;;;;;;8.35;94.06;62859.03;5028101;28;20199;-74
2023/03/25 01:36:24;;;;;;;10.88;7.45;;;;;;;8.42;93.93;62869.31;5024849;28;20225;-75
2023/03/25 01:38:51;;;;;;;10.68;7.25;;;;;;;8.37;93.77;62861.13;5021431;28;20206;-74
2023/03/25 01:41:19;;;;;;;9.55;7.43;;;;;;;8.31;94.40;62852.38;5026009;28;20195;-74
2023/03/25 01:44:02;;;;;;;12.02;7.65;;;;;;;8.27;95.06;62848.25;5024912;28;20476;-76
2023/03/25 01:46:29;;;;;;;9.82;7.50;;;;;;;8.25;95.40;62846.19;5024755;28;20225;-75
2023/03/25 01:49:00;;;;;;;9.93;7.72;;;;;;;8.25;95.30;62849.22;5022379;28;20230;-75
2023/03/25 01:51:32;;;;;;;11.55;6.68;;;;;;;8.16;96.09;62842.47;5026646;28;20294;-75
2023/03/25 01:53:59;;;;;;;9.38;7.35;;;;;;;8.17;96.56;62844.00;5025590;28;20254;-74
2023/03/25 01:56:30;;;;;;;10.30;7.93;;;;;;;8.11;96.88;62835.25;5024308;28;20218;-75
2023/03/25 01:59:01;;;;;;;13.13;7.50;;;;;;;8.07;97.59;62833.16;5022931;28;20233;-73
2023/03/25 02:01:30;;;;;;;7.93;7.13;;;;;;;8.10;98.02;62834.25;5025393;28;20221;-74
2023/03/25 02:04:10;;;;;;;8.82;7.35;;;;;;;8.07;98.48;62830.63;5024493;28;20245;-74
2023/03/25 02:06:42;;;;;;;7.97;6.63;;;;;;;8.02;98.82;62825.47;5016839;28;20227;-75
2023/03/25 02:09:11;;;;;;;13.27;7.65;;;;;;;8.05;99.20;62826.03;5004473;28;20215;-75
2023/03/25 02:11:39;;;;;;;9.65;7.40;;;;;;;8.01;99.30;62824.94;5005088;28;20251;-75
2023/03/25 02:14:09;;;;;;;11.15;8.13;;;;;;;8.02;99.31;62825.47;5004578;28;20518;-75
2023/03/25 02:16:45;;;;;;;8.60;7.70;;;;;;;8.01;99.22;62816.81;5020735;28;20231;-75
2023/03/25 02:19:47;;;;;;;7.85;6.90;;;;;;;7.96;99.88;62814.19;5024493;28;20194;-76
2023/03/25 02:23:02;;;;;;;9.02;7.93;;;;;;;8.00;99.94;62823.91;5009394;28;20458;-76
2023/03/25 02:26:05;;;;;;;8.98;7.50;;;;;;;7.99;100.00;62817.81;5021702;28;20491;-74
2023/03/25 02:28:37;;;;;;;9.50;7.22;;;;;;;7.97;100.00;62818.28;5024372;28;20550;-76
2023/03/25 02:31:32;;;;;;;10.65;7.47;;;;;;;7.93;100.00;62811.09;5024984;28;20199;-76
2023/03/25 02:34:34;;;;;;;8.05;7.05;;;;;;;7.91;100.00;62814.09;5021482;28;20246;-75
2023/03/25 02:37:29;;;;;;;8.80;7.68;;;;;;;7.91;100.00;62809.03;5021161;28;20218;-76
2023/03/25 02:40:05;;;;;;;8.70;7.50;;;;;;;7.90;100.00;62808.00;5024780;28;20198;-75
2023/03/25 02:42:38;;;;;;;9.75;7.20;;;;;;;7.85;100.00;62803.34;5020305;28;20286;-74
2023/03/25 02:45:10;;;;;;;10.85;7.10;;;;;;;7.86;100.00;62808.94;5004071;28;20552;-75
2023/03/25 02:47:44;;;;;;;9.90;7.88;;;;;;;7.86;100.00;62811.47;5004070;28;20246;-76
2023/03/25 02:50:16;;;;;;;10.98;7.78;;;;;;;7.81;100.00;62804.28;5005088;28;20200;-74
2023/03/25 02:52:47;;;;;;;9.88;7.15;;;;;;;7.82;100.00;62804.81;5005231;28;20223;-77
2023/03/25 02:55:18;;;;;;;11.15;7.40;;;;;;;7.75;100.00;62795.56;5005032;28;20253;-76
2023/03/25 02:57:48;;;;;;;9.15;7.68;;;;;;;7.74;100.00;62794.53;5005659;28;20222;-77
2023/03/25 03:00:19;;;;;;;8.57;7.53;;;;;;;7.69;100.00;62791.91;5006816;28;20199;-75
2023/03/25 03:02:58;;;;;;;7.57;6.88;;;;;;;7.66;100.00;62790.84;5024809;28;20218;-74
2023/03/25 03:05:27;;;;;;;8.73;7.15;;;;;;;7.63;100.00;62788.25;5025903;28;20277;-76
2023/03/25 03:08:08;;;;;;;9.02;7.78;;;;;;;7.62;100.00;62781.63;5024422;28;20551;-76
2023/03/25 03:10:47;;;;;;;12.00;7.93;;;;;;;7.64;100.00;62784.22;5022964;28;20202;-76
2023/03/25 03:13:26;;;;;;;9.38;7.75;;;;;;;7.59;100.00;62776.00;5024156;28;20269;-75
2023/03/25 03:16:06;;;;;;;12.45;8.90;;;;;;;7.52;100.00;62771.31;5023969;28;20198;-75
2023/03/25 03:18:44;;;;;;;9.15;7.97;;;;;;;7.53;100.00;62775.38;5022384;28;20194;-74
2023/03/25 03:21:16;;;;;;;11.20;7.88;;;;;;;7.51;100.00;62770.25;5015272;28;20421;-76
2023/03/25 03:23:54;;;;;;;10.50;8.18;;;;;;;7.52;100.00;62773.84;5024837;28;20237;-77
2023/03/25 03:26:28;;;;;;;8.88;7.65;;;;;;;7.47;100.00;62769.19;5024820;28;20265;-75
2023/03/25 03:29:01;;;;;;;9.52;7.30;;;;;;;7.46;100.00;62765.09;5010780;28;20396;-75
2023/03/25 03:31:36;;;;;;;8.13;7.30;;;;;;;7.41;100.00;62759.94;5006528;28;20219;-76
2023/03/25 03:34:09;;;;;;;8.18;5.97;;;;;;;7.41;100.00;62757.41;5008181;28;20229;-76
2023/03/25 03:36:41;;;;;;;10.57;6.65;;;;;;;7.42;100.00;62764.03;5009030;28;20223;-76
2023/03/25 03:39:18;;;;;;;8.68;7.35;;;;;;;7.37;100.00;62755.84;5009414;28;20194;-76
2023/03/25 03:41:51;;;;;;;7.88;7.07;;;;;;;7.37;100.00;62756.34;5010166;28;20238;-76
2023/03/25 03:44:22;;;;;;;12.02;8.70;;;;;;;7.36;100.00;62759.84;5008760;28;20195;-76
2023/03/25 03:46:57;;;;;;;12.15;9.50;;;;;;;7.34;100.00;62752.72;5008991;28;20228;-75
2023/03/25 03:49:28;;;;;;;13.73;10.00;;;;;;;7.30;100.00;62746.59;5007826;28;20394;-76
2023/03/25 03:52:02;;;;;;;12.13;10.13;;;;;;;7.27;100.00;62746.03;5008432;28;20306;-76
2023/03/25 03:54:33;;;;;;;13.38;9.63;;;;;;;7.29;100.00;62750.09;5010491;28;20234;-74
2023/03/25 03:57:03;;;;;;;16.08;9.15;;;;;;;7.27;100.00;62750.56;5028922;28;20426;-76
2023/03/25 03:59:39;;;;;;;16.00;9.48;;;;;;;7.27;100.00;62750.56;5031491;28;20194;-77
2023/03/25 04:02:13;;;;;;;20.15;10.07;;;;;;;7.30;100.00;62746.59;5030180;28;20244;-77
2023/03/25 04:04:41;;;;;;;18.95;10.75;;;;;;;7.31;100.00;62754.69;5025683;28;20234;-75
2023/03/25 04:07:15;;;;;;;16.58;10.60;;;;;;;7.28;100.00;62749.59;5027898;28;20526;-74
2023/03/25 04:09:55;;;;;;;14.15;9.38;;;;;;;7.29;100.00;62752.63;5034388;28;20206;-75
2023/03/25 04:12:26;;;;;;;10.88;8.45;;;;;;;7.26;100.00;62742.47;5026432;28;20230;-77
2023/03/25 04:14:54;;;;;;;9.18;7.88;;;;;;;7.30;100.00;62749.13;5027918;28;20236;-76
2023/03/25 04:17:21;;;;;;;12.50;8.43;;;;;;;7.33;100.00;62756.75;5028181;28;20265;-75
2023/03/25 04:19:52;;;;;;;12.60;9.02;;;;;;;7.32;100.00;62751.19;5014859;28;20228;-77
2023/03/25 04:22:20;;;;;;;10.85;9.57;;;;;;;7.35;100.00;62758.84;5025063;28;20285;-77
2023/03/25 04:24:50;;;;;;;12.73;8.75;;;;;;;7.39;100.00;62760.41;5027510;28;20202;-77
2023/03/25 04:27:18;;;;;;;15.43;9.38;;;;;;;7.40;100.00;62758.94;5024311;28;20227;-77
2023/03/25 04:29:47;;;;;;;16.00;10.77;;;;;;;7.47;100.00;62766.16;5007893;28;20242;-77
2023/03/25 04:32:15;;;;;;;18.25;11.27;;;;;;;7.49;100.00;62771.25;5026318;28;20222;-78
2023/03/25 04:34:42;;;;;;;10.75;8.50;;;;;;;7.51;100.00;62775.34;5041315;28;20208;-75
2023/03/25 04:37:10;;;;;;;9.18;6.95;;;;;;;7.50;100.00;62774.84;5031428;28;20225;-74
2023/03/25 04:39:38;;;;;;;6.35;5.72;;;;;;;7.54;100.00;62778.94;5022092;28;20202;-77
2023/03/25 04:42:05;;;;;;;9.05;6.35;;;;;;;7.50;100.00;62772.28;5022723;28;20224;-76
2023/03/25 04:44:37;;;;;;;6.45;5.90;;;;;;;7.51;100.00;62770.78;5007513;28;20250;-78
2023/03/25 04:47:07;;;;;;;7.07;6.32;;;;;;;7.54;100.00;62773.88;5028008;28;20210;-77
2023/03/25 04:49:35;;;;;;;7.22;6.20;;;;;;;7.58;100.00;62777.50;5026994;28;20224;-75
2023/03/25 04:52:03;;;;;;;6.68;5.95;;;;;;;7.64;100.00;62786.75;5012293;28;20235;-75
2023/03/25 04:54:30;;;;;;;6.68;5.53;;;;;;;7.68;100.00;62787.84;5006960;28;20266;-75
2023/03/25 04:56:57;;;;;;;8.95;5.85;;;;;;;7.74;100.00;62794.00;5018150;28;20219;-76
2023/03/25 04:59:25;;;;;;;7.47;5.65;;;;;;;7.81;100.00;62801.75;5027582;28;20202;-77
2023/03/25 05:01:53;;;;;;;8.52;7.07;;;;;;;7.92;100.00;62815.16;5033839;28;20593;-77
2023/03/25 05:04:23;;;;;;;8.35;6.68;;;;;;;8.03;100.00;62827.00;5046122;28;20257;-76
2023/03/25 05:06:50;;;;;;;9.45;7.43;;;;;;;8.15;100.00;62836.34;5036485;28;20426;-76
2023/03/25 05:09:20;;;;;;;8.30;6.60;;;;;;;8.30;100.00;62856.41;5017183;28;20286;-77
2023/03/25 05:11:48;;;;;;;8.63;7.53;;;;;;;8.44;100.00;62865.81;5023806;28;20217;-77
2023/03/25 05:14:17;;;;;;;9.75;7.53;;;;;;;8.58;100.00;62877.72;5046269;28;20202;-77
2023/03/25 05:16:45;;;;;;;7.60;6.65;;;;;;;8.72;100.00;62897.78;5044422;28;20653;-76
2023/03/25 05:19:13;;;;;;;7.03;6.22;;;;;;;8.88;100.00;62914.31;5024043;28;20217;-76
2023/03/25 05:21:42;;;;;;;7.03;6.25;;;;;;;9.02;99.62;62928.28;5034612;28;20219;-75
2023/03/25 05:24:10;;;;;;;7.88;6.72;;;;;;;9.17;99.58;62941.25;5026125;28;20202;-77
2023/03/25 05:26:38;;;;;;;7.55;6.75;;;;;;;9.30;99.70;62960.28;5023299;28;20277;-76
2023/03/25 05:29:08;;;;;;;9.52;6.97;;;;;;;9.39;97.22;62966.50;5027691;28;20225;-76
2023/03/25 05:31:35;;;;;;;8.27;7.20;;;;;;;9.58;95.51;62985.66;5033589;28;20218;-76
2023/03/25 05:34:05;;;;;;;8.18;7.03;;;;;;;9.70;91.94;62998.56;5027277;28;20210;-76
2023/03/25 05:36:32;;;;;;;9.85;7.05;;;;;;;9.83;89.64;63012.03;5023118;28;20227;-75
2023/03/25 05:39:03;;;;;;;10.27;7.47;;;;;;;9.98;88.07;63027.00;5024718;28;20198;-76
2023/03/25 05:41:37;;;;;;;9.02;7.10;;;;;;;10.12;87.00;63042.03;5023367;28;20306;-75
2023/03/25 05:44:05;;;;;;;8.00;7.00;;;;;;;10.29;84.68;63061.66;5023586;28;20541;-76
2023/03/25 05:46:31;;;;;;;8.68;7.28;;;;;;;10.47;82.84;63080.78;5018007;28;20235;-76
2023/03/25 05:49:00;;;;;;;8.18;7.13;;;;;;;10.56;80.74;63084.00;5026140;28;20226;-76
2023/03/25 05:51:32;;;;;;;8.55;7.47;;;;;;;10.63;80.13;63099.38;5026113;28;20222;-76
2023/03/25 05:54:01;;;;;;;10.05;7.45;;;;;;;10.72;77.29;63098.00;5024341;28;20273;-78
2023/03/25 05:56:28;;;;;;;8.85;6.80;;;;;;;10.73;75.42;63104.13;5025391;28;20222;-77
2023/03/25 05:58:55;;;;;;;10.30;6.25;;;;;;;10.60;76.16;63093.75;5023846;28;20204;-76
2023/03/25 06:01:22;;;;;;;10.48;6.90;;;;;;;10.62;76.32;63090.72;5025389;28;20230;-76
2023/03/25 06:03:49;;;;;;;9.07;6.78;;;;;;;10.60;76.81;63091.19;5021281;28;20202;-77
2023/03/25 06:06:18;;;;;;;7.78;6.43;;;;;;;10.69;75.79;63100.00;5005114;28;20504;-77
2023/03/25 06:08:46;;;;;;;8.60;6.68;;;;;;;10.81;76.95;63114.97;5027587;28;20274;-76
2023/03/25 06:11:14;;;;;;;8.40;7.15;;;;;;;11.05;76.27;63132.16;5026852;28;20203;-76
2023/03/25 06:13:48;;;;;;;6.72;6.00;;;;;;;11.30;72.91;63160.63;5026200;28;20199;-74
2023/03/25 06:16:18;;;;;;;9.30;6.95;;;;;;;11.43;73.01;63174.59;5026228;28;20221;-75
2023/03/25 06:18:49;;;;;;;10.23;7.88;;;;;;;11.53;70.47;63187.50;5025065;28;20219;-76
2023/03/25 06:21:18;;;;;;;12.32;7.50;;;;;;;11.61;70.46;63195.28;5027814;28;20198;-76
2023/03/25 06:23:45;;;;;;;9.80;6.57;;;;;;;11.74;69.84;63205.69;5025013;28;20523;-76
2023/03/25 06:26:14;;;;;;;8.25;6.57;;;;;;;11.70;70.81;63199.00;5024781;28;20550;-79
2023/03/25 06:28:41;;;;;;;10.00;6.93;;;;;;;11.81;69.82;63216.00;5023514;28;20273;-76
2023/03/25 06:31:12;;;;;;;12.23;6.45;;;;;;;11.89;68.38;63223.78;5022624;28;20261;-76
2023/03/25 06:33:40;;;;;;;7.72;6.38;;;;;;;11.88;68.94;63220.72;5022329;28;20241;-78
2023/03/25 06:36:10;;;;;;;8.05;6.40;;;;;;;11.99;68.98;63234.16;5022854;28;20195;-76
2023/03/25 06:38:37;;;;;;;7.65;6.85;;;;;;;12.08;68.60;63246.03;5019489;28;20195;-76
2023/03/25 06:41:06;;;;;;;10.82;6.40;;;;;;;12.14;67.81;63247.13;5024691;28;20240;-77
2023/03/25 06:43:34;;;;;;;7.28;6.60;;;;;;;12.18;67.30;63254.34;5022730;28;20257;-75
2023/03/25 06:46:01;;;;;;;11.15;6.57;;;;;;;12.32;67.04;63270.91;5026719;28;20356;-78
2023/03/25 06:48:29;;;;;;;8.02;6.13;;;;;;;12.45;65.01;63281.81;5023727;28;20264;-77
2023/03/25 06:50:57;;;;;;;9.27;6.57;;;;;;;12.57;64.45;63294.78;5026201;28;20214;-76
2023/03/25 06:53:24;;;;;;;6.97;6.15;;;;;;;12.65;64.17;63303.06;5021962;28;20261;-77
2023/03/25 06:55:51;;;;;;;6.88;5.82;;;;;;;12.59;63.91;63291.75;5023926;28;20199;-76
2023/03/25 06:58:18;;;;;;;11.43;6.68;;;;;;;12.65;64.59;63303.06;5025352;28;20234;-76
2023/03/25 07:00:46;;;;;;;9.70;6.70;;;;;;;12.64;64.43;63304.06;5036651;28;20282;-77
2023/03/25 07:03:13;;;;;;;9.23;7.18;;;;;;;12.67;64.17;63300.03;5022207;28;20280;-79
2023/03/25 07:05:42;;;;;;;13.15;8.02;;;;;;;12.61;65.46;63293.31;5032029;28;20206;-78
2023/03/25 07:08:09;;;;;;;13.32;6.85;;;;;;;12.64;64.98;63304.59;5025514;28;20226;-76
2023/03/25 07:10:36;;;;;;;10.90;6.85;;;;;;;12.75;64.33;63313.44;5020865;28;20230;-78
2023/03/25 07:13:02;;;;;;;9.25;7.18;;;;;;;12.93;64.36;63331.06;5032019;28;20218;-78
2023/03/25 07:15:30;;;;;;;10.88;6.90;;;;;;;13.07;63.75;63346.13;5027331;28;20198;-77
2023/03/25 07:17:58;;;;;;;8.05;7.25;;;;;;;12.91;62.74;63329.00;5025375;28;20654;-77
2023/03/25 07:20:25;;;;;;;9.45;7.38;;;;;;;12.99;61.55;63337.31;5028158;28;20382;-78
2023/03/25 07:22:54;;;;;;;13.25;6.72;;;;;;;13.02;62.51;63337.88;5025126;28;20297;-75
2023/03/25 07:25:21;;;;;;;13.10;7.30;;;;;;;13.11;62.02;63355.41;5022945;28;20484;-77
2023/03/25 07:27:48;;;;;;;9.45;6.93;;;;;;;13.02;61.85;63342.97;5024970;28;20241;-78
2023/03/25 07:30:15;;;;;;;8.45;7.25;;;;;;;13.10;62.02;63349.25;5013372;28;20230;-77
2023/03/25 07:32:44;;;;;;;9.80;7.22;;;;;;;13.21;61.22;63360.13;5024797;28;20222;-77
2023/03/25 07:35:13;;;;;;;11.80;7.68;;;;;;;13.33;61.96;63375.16;5025122;28;20247;-77
2023/03/25 07:37:40;;;;;;;9.05;6.60;;;;;;;13.67;59.98;63410.94;5020221;28;20333;-77
2023/03/25 07:40:08;;;;;;;12.57;7.65;;;;;;;13.90;59.18;63431.75;5024425;28;20249;-75
2023/03/25 07:42:36;;;;;;;8.20;7.05;;;;;;;13.97;58.71;63441.56;5022825;28;20238;-78
2023/03/25 07:45:04;;;;;;;9.30;7.15;;;;;;;14.17;58.21;63466.94;5025909;28;20206;-75
2023/03/25 07:47:32;;;;;;;9.27;7.50;;;;;;;14.24;57.03;63466.50;5023152;28;20226;-79
2023/03/25 07:49:59;;;;;;;9.50;7.50;;;;;;;14.38;57.09;63481.59;5025630;28;20226;-77
2023/03/25 07:52:27;;;;;;;11.13;7.45;;;;;;;14.48;55.66;63491.97;5025473;28;20272;-77
2023/03/25 07:54:54;;;;;;;11.43;7.93;;;;;;;14.59;56.01;63500.84;5023627;28;20394;-75
2023/03/25 07:57:22;;;;;;;13.07;8.05;;;;;;;14.71;55.33;63510.75;5005111;28;20425;-77
2023/03/25 07:59:49;;;;;;;13.38;7.82;;;;;;;14.79;55.20;63526.75;5023209;28;20202;-77
2023/03/25 08:02:16;;;;;;;8.18;7.20;;;;;;;14.83;55.03;63528.34;5024794;28;20280;-78
2023/03/25 08:04:43;;;;;;;8.85;7.90;;;;;;;15.02;55.66;63555.78;5022737;28;20194;-77
2023/03/25 08:07:10;;;;;;;15.38;8.60;;;;;;;15.02;55.54;63545.00;5029360;28;20290;-77
2023/03/25 08:09:38;;;;;;;11.15;8.27;;;;;;;15.06;55.84;63552.22;5023325;28;20245;-76
2023/03/25 08:12:05;;;;;;;13.77;8.52;;;;;;;15.26;55.43;63569.94;5023977;28;20476;-77
2023/03/25 08:14:32;;;;;;;10.73;7.72;;;;;;;15.20;53.64;63565.75;5024742;28;20226;-75
2023/03/25 08:16:59;;;;;;;12.50;8.05;;;;;;;15.24;54.67;63567.34;5028514;28;20279;-77
2023/03/25 08:19:26;;;;;;;9.50;8.32;;;;;;;15.59;53.20;63606.81;5027987;28;20243;-75
2023/03/25 08:21:53;;;;;;;8.07;7.00;;;;;;;15.80;52.57;63626.09;5028135;28;20213;-76
2023/03/25 08:24:20;;;;;;;10.60;7.65;;;;;;;16.13;52.52;63659.88;5024324;28;20202;-76
2023/03/25 08:26:49;;;;;;;14.57;8.68;;;;;;;16.48;51.95;63695.78;5025524;28;20424;-75
2023/03/25 08:29:16;;;;;;;13.35;8.52;;;;;;;16.69;52.28;63720.72;5027406;28;20293;-76
2023/03/25 08:31:45;;;;;;;12.45;7.70;;;;;;;16.66;50.85;63714.50;5026886;28;20250;-76
2023/03/25 08:34:14;;;;;;;11.50;7.45;;;;;;;16.75;51.41;63729.00;5031886;28;20193;-75
2023/03/25 08:36:40;;;;;;;11.98;8.55;;;;;;;16.62;52.23;63713.44;5032705;28;20248;-77
2023/03/25 08:39:10;;;;;;;11.27;7.78;;;;;;;16.57;51.99;63712.84;5027169;28;20205;-75
2023/03/25 08:41:37;;;;;;;9.80;6.97;;;;;;;16.64;52.37;63718.09;5029071;28;20218;-75
2023/03/25 08:44:06;;;;;;;8.77;7.57;;;;;;;16.95;51.84;63745.19;5024887;28;20325;-76
2023/03/25 08:46:33;;;;;;;9.60;7.05;;;;;;;17.13;51.26;63769.09;5025700;28;20221;-78
2023/03/25 08:49:01;;;;;;;8.95;7.45;;;;;;;17.26;51.76;63782.59;5028018;28;20198;-77
2023/03/25 08:51:27;;;;;;;11.20;7.80;;;;;;;17.45;50.14;63796.72;5029827;28;20236;-79
2023/03/25 08:53:54;;;;;;;9.52;7.32;;;;;;;17.55;48.97;63809.22;5026324;28;20210;-78
2023/03/25 08:56:21;;;;;;;12.40;7.40;;;;;;;17.54;49.15;63810.72;5028520;28;20216;-77
2023/03/25 08:58:48;;;;;;;9.25;7.18;;;;;;;17.55;49.74;63811.78;5029855;28;20579;-78
2023/03/25 09:01:16;;;;;;;8.38;7.57;;;;;;;17.25;49.81;63779.00;5025227;28;20396;-75
2023/03/25 09:03:43;;;;;;;9.80;7.43;;;;;;;16.96;50.70;63750.88;5026155;28;20213;-77
2023/03/25 09:06:10;;;;;;;13.82;7.68;;;;;;;16.70;50.72;63721.75;5027897;28;20221;-77
2023/03/25 09:08:37;;;;;;;7.72;6.97;;;;;;;16.63;51.19;63713.94;5027430;28;20194;-78
2023/03/25 09:11:05;;;;;;;10.90;8.15;;;;;;;16.59;51.20;63712.34;5011611;28;20238;-78
2023/03/25 09:13:31;;;;;;;11.80;7.95;;;;;;;16.64;50.96;63712.41;5024979;28;20209;-76
2023/03/25 09:15:59;;;;;;;13.82;8.57;;;;;;;16.72;51.22;63723.31;5029385;28;20261;-78
2023/03/25 09:18:27;;;;;;;9.95;7.65;;;;;;;16.70;50.43;63724.34;5017703;28;20226;-77
2023/03/25 09:20:59;;;;;;;11.98;8.77;;;;;;;16.80;51.28;63731.63;5020172;28;20494;-79
2023/03/25 09:23:27;;;;;;;13.13;8.18;;;;;;;17.00;50.37;63749.88;5027079;28;20237;-77
2023/03/25 09:25:53;;;;;;;9.98;7.72;;;;;;;17.28;48.26;63782.13;5028350;28;20220;-78
2023/03/25 09:28:20;;;;;;;12.32;7.72;;;;;;;17.51;49.21;63807.63;5009771;28;20222;-78
2023/03/25 09:30:47;;;;;;;7.85;7.13;;;;;;;17.58;48.10;63814.91;5027225;28;20240;-76
2023/03/25 09:33:14;;;;;;;12.05;8.57;;;;;;;17.57;48.52;63813.88;5028266;28;20242;-76
2023/03/25 09:35:43;;;;;;;12.90;7.68;;;;;;;17.52;48.56;63804.03;5025122;28;20230;-78
2023/03/25 09:38:10;;;;;;;12.98;7.53;;;;;;;17.32;48.79;63788.84;5013684;28;20291;-78
2023/03/25 09:40:37;;;;;;;12.15;7.80;;;;;;;17.13;48.86;63763.94;5028308;28;20202;-77
2023/03/25 09:43:17;;;;;;;14.02;7.70;;;;;;;17.32;48.86;63786.28;5031325;28;20246;-81
2023/03/25 09:45:47;;;;;;;15.75;7.95;;;;;;;17.69;48.24;63823.78;5027133;28;20197;-77
2023/03/25 09:48:24;;;;;;;11.40;8.10;;;;;;;17.84;47.82;63839.41;5025271;28;20245;-77
2023/03/25 09:50:53;;;;;;;11.55;7.25;;;;;;;18.06;47.80;63857.16;5026740;28;20235;-77
2023/03/25 09:53:29;;;;;;;12.63;8.75;;;;;;;18.25;46.47;63885.22;5027075;28;20277;-79
2023/03/25 09:55:56;;;;;;;13.98;8.35;;;;;;;18.32;47.75;63887.34;5027147;28;20261;-78
2023/03/25 09:58:40;;;;;;;12.30;8.15;;;;;;;18.46;46.45;63901.44;5026527;28;20425;-79
2023/03/25 10:01:21;;;;;;;12.23;8.30;;;;;;;18.61;44.38;63927.38;5026144;28;20269;-78
2023/03/25 10:04:07;;;;;;;18.00;7.93;;;;;;;18.90;45.44;63949.34;5027255;28;20379;-78
2023/03/25 10:06:42;;;;;;;13.45;8.77;;;;;;;18.90;44.17;63947.28;5027992;28;20252;-77
2023/03/25 10:09:26;;;;;;;12.45;8.88;;;;;;;18.86;45.33;63945.19;5027471;28;20414;-79
2023/03/25 10:12:02;;;;;;;11.32;9.35;;;;;;;18.42;45.22;63902.94;5026868;28;20241;-80
2023/03/25 10:14:37;;;;;;;12.52;9.60;;;;;;;18.25;46.33;63885.22;5026141;28;20205;-77
2023/03/25 10:17:15;;;;;;;14.15;9.55;;;;;;;18.16;46.05;63873.25;5019935;28;20226;-77
2023/03/25 10:19:55;;;;;;;15.30;10.65;;;;;;;18.01;46.09;63857.13;5007076;28;20203;-78
2023/03/25 10:22:30;;;;;;;12.95;9.73;;;;;;;18.10;47.13;63867.00;5026865;28;20253;-79
2023/03/25 10:25:02;;;;;;;17.90;9.48;;;;;;;18.33;46.60;63890.97;5027831;28;20208;-78
2023/03/25 10:27:34;;;;;;;14.25;9.77;;;;;;;18.82;45.20;63946.16;5026762;28;20225;-78
2023/03/25 10:30:11;;;;;;;13.13;8.98;;;;;;;18.94;44.07;63956.09;5026737;28;20230;-77
2023/03/25 10:32:41;;;;;;;18.20;9.02;;;;;;;18.79;43.97;63946.16;5025437;28;20220;-77
2023/03/25 10:35:16;;;;;;;17.55;9.82;;;;;;;18.90;43.52;63952.44;5025523;28;20194;-80
2023/03/25 10:37:47;;;;;;;11.85;7.88;;;;;;;19.05;43.43;63965.50;5025762;28;20281;-79
2023/03/25 10:40:22;;;;;;;11.43;7.10;;;;;;;19.25;43.02;63988.41;5027959;28;20206;-77
2023/03/25 10:43:00;;;;;;;14.55;7.45;;;;;;;19.44;42.21;64008.25;5025583;28;20217;-77
2023/03/25 10:45:29;;;;;;;8.02;6.57;;;;;;;19.29;41.16;63992.59;5025040;28;20202;-78
2023/03/25 10:48:05;;;;;;;9.20;5.47;;;;;;;19.25;40.93;63988.94;5024716;28;20230;-77
2023/03/25 10:50:32;;;;;;;7.80;6.22;;;;;;;19.44;41.28;64010.84;5025274;28;20241;-78
2023/03/25 10:53:01;;;;;;;7.63;6.47;;;;;;;19.43;41.66;64009.81;5025462;28;20242;-76
2023/03/25 10:55:33;;;;;;;7.82;5.95;;;;;;;19.60;41.61;64021.84;5024723;28;20214;-77
2023/03/25 10:58:01;;;;;;;7.80;6.30;;;;;;;19.68;40.65;64030.16;5025179;28;20415;-77
2023/03/25 11:00:29;;;;;;;5.53;5.00;;;;;;;19.62;40.00;64024.44;5024710;28;20198;-78
2023/03/25 11:02:56;;;;;;;5.03;4.63;;;;;;;19.30;39.97;63993.66;5024565;28;20538;-77
2023/03/25 11:05:28;;;;;;;6.90;4.68;;;;;;;19.30;40.74;63991.06;5025656;28;20563;-77
2023/03/25 11:08:00;;;;;;;8.07;5.07;;;;;;;19.69;40.85;64031.22;5025948;28;20218;-78
2023/03/25 11:10:31;;;;;;;6.13;4.47;;;;;;;19.62;39.83;64026.50;5024993;28;20232;-77
2023/03/25 11:13:02;;;;;;;7.95;5.10;;;;;;;19.59;40.12;64023.38;5027982;28;20229;-78
2023/03/25 11:15:32;;;;;;;6.05;3.80;;;;;;;19.56;39.70;64018.19;5025194;28;20198;-78
2023/03/25 11:18:03;;;;;;;7.43;4.50;;;;;;;19.44;39.97;64006.19;5024423;28;20226;-77
2023/03/25 11:20:35;;;;;;;5.82;3.75;;;;;;;19.42;39.45;64009.28;5025109;28;20502;-76
2023/03/25 11:23:07;;;;;;;6.95;4.47;;;;;;;19.48;40.01;64015.53;5025002;28;20439;-78
2023/03/25 11:25:42;;;;;;;5.95;3.58;;;;;;;19.48;39.17;64009.84;5024409;28;20329;-77
2023/03/25 11:28:17;;;;;;;6.20;4.03;;;;;;;19.65;39.23;64027.56;5025443;28;20217;-77
2023/03/25 11:31:11;;;;;;;5.78;3.80;;;;;;;19.90;39.47;64053.13;5025680;28;20577;-76
2023/03/25 11:33:39;;;;;;;7.03;4.40;;;;;;;20.16;40.37;64083.38;5026947;28;20233;-77
2023/03/25 11:36:25;;;;;;;5.35;4.03;;;;;;;20.00;40.74;64069.25;5025553;28;20208;-74
2023/03/25 11:38:56;;;;;;;4.70;4.38;;;;;;;19.79;41.69;64041.66;5024117;28;20206;-75
2023/03/25 11:41:29;;;;;;;5.75;3.95;;;;;;;19.67;40.85;64029.13;5023872;28;20221;-77
2023/03/25 11:43:56;;;;;;;6.82;4.20;;;;;;;19.71;41.18;64033.81;5024752;28;20201;-77
2023/03/25 11:46:24;;;;;;;5.32;4.10;;;;;;;19.82;40.59;64047.88;5024119;28;20222;-77